sensor_id;sensor_type;location;lat;lon;timestamp;temperature;humidity
356;DHT22;62514;48.112;11.566;2023-09-18T00:00:48;16.70;40.70
356;DHT22;62514;48.112;11.566;2023-09-18T00:03:21;16.60;40.60
356;DHT22;62514;48.112;11.566;2023-09-18T00:05:50;16.50;41.50
356;DHT22;62514;48.112;11.566;2023-09-18T00:08:18;16.30;43.10
356;DHT22;62514;48.112;11.566;2023-09-18T00:10:51;16.30;44.10
356;DHT22;62514;48.112;11.566;2023-09-18T00:13:17;16.30;44.50
356;DHT22;62514;48.112;11.566;2023-09-18T00:15:43;16.20;44.30
356;DHT22;62514;48.112;11.566;2023-09-18T00:18:15;16.10;44.70
356;DHT22;62514;48.112;11.566;2023-09-18T00:20:41;16.10;43.70
356;DHT22;62514;48.112;11.566;2023-09-18T00:23:08;16.00;44.10
356;DHT22;62514;48.112;11.566;2023-09-18T00:25:34;15.90;44.70
356;DHT22;62514;48.112;11.566;2023-09-18T00:28:00;15.90;45.80
356;DHT22;62514;48.112;11.566;2023-09-18T00:30:25;15.90;46.40
356;DHT22;62514;48.112;11.566;2023-09-18T00:32:51;15.90;45.70
356;DHT22;62514;48.112;11.566;2023-09-18T00:35:17;15.90;45.10
356;DHT22;62514;48.112;11.566;2023-09-18T00:37:43;15.80;45.40
356;DHT22;62514;48.112;11.566;2023-09-18T00:40:09;15.90;45.30
356;DHT22;62514;48.112;11.566;2023-09-18T00:42:36;15.80;44.90
356;DHT22;62514;48.112;11.566;2023-09-18T00:45:02;15.90;44.70
356;DHT22;62514;48.112;11.566;2023-09-18T00:47:28;15.90;44.20
356;DHT22;62514;48.112;11.566;2023-09-18T00:49:54;16.00;43.60
356;DHT22;62514;48.112;11.566;2023-09-18T00:52:22;15.90;42.70
356;DHT22;62514;48.112;11.566;2023-09-18T00:54:48;15.90;43.60
356;DHT22;62514;48.112;11.566;2023-09-18T00:57:14;15.80;43.50
356;DHT22;62514;48.112;11.566;2023-09-18T00:59:40;15.80;44.00
356;DHT22;62514;48.112;11.566;2023-09-18T01:02:06;15.70;44.30
356;DHT22;62514;48.112;11.566;2023-09-18T01:04:33;15.70;45.00
356;DHT22;62514;48.112;11.566;2023-09-18T01:07:02;15.80;45.00
356;DHT22;62514;48.112;11.566;2023-09-18T01:09:31;15.70;44.50
356;DHT22;62514;48.112;11.566;2023-09-18T01:17:39;15.60;45.00
356;DHT22;62514;48.112;11.566;2023-09-18T01:20:09;15.50;44.50
356;DHT22;62514;48.112;11.566;2023-09-18T01:22:35;15.40;44.80
356;DHT22;62514;48.112;11.566;2023-09-18T01:25:00;15.50;45.50
356;DHT22;62514;48.112;11.566;2023-09-18T01:27:26;15.50;45.50
356;DHT22;62514;48.112;11.566;2023-09-18T01:29:51;15.50;44.60
356;DHT22;62514;48.112;11.566;2023-09-18T01:32:19;15.50;44.60
356;DHT22;62514;48.112;11.566;2023-09-18T01:34:48;15.50;44.70
356;DHT22;62514;48.112;11.566;2023-09-18T01:37:16;15.50;44.90
356;DHT22;62514;48.112;11.566;2023-09-18T01:39:43;15.50;44.90
356;DHT22;62514;48.112;11.566;2023-09-18T01:42:10;15.60;44.50
356;DHT22;62514;48.112;11.566;2023-09-18T01:44:36;15.60;43.40
356;DHT22;62514;48.112;11.566;2023-09-18T01:47:08;15.60;44.00
356;DHT22;62514;48.112;11.566;2023-09-18T01:49:39;15.60;43.40
356;DHT22;62514;48.112;11.566;2023-09-18T01:52:07;15.60;43.40
356;DHT22;62514;48.112;11.566;2023-09-18T01:54:33;15.60;42.80
356;DHT22;62514;48.112;11.566;2023-09-18T01:57:00;15.60;42.80
356;DHT22;62514;48.112;11.566;2023-09-18T01:59:26;15.60;42.60
356;DHT22;62514;48.112;11.566;2023-09-18T02:01:53;15.60;42.90
356;DHT22;62514;48.112;11.566;2023-09-18T02:04:22;15.60;42.30
356;DHT22;62514;48.112;11.566;2023-09-18T02:06:49;15.60;41.90
356;DHT22;62514;48.112;11.566;2023-09-18T02:09:16;15.60;41.00
356;DHT22;62514;48.112;11.566;2023-09-18T02:11:44;15.50;42.10
356;DHT22;62514;48.112;11.566;2023-09-18T02:14:10;15.50;41.80
356;DHT22;62514;48.112;11.566;2023-09-18T02:16:38;15.50;42.30
356;DHT22;62514;48.112;11.566;2023-09-18T02:19:07;15.50;42.30
356;DHT22;62514;48.112;11.566;2023-09-18T02:21:34;15.50;41.20
356;DHT22;62514;48.112;11.566;2023-09-18T02:23:59;15.50;41.60
356;DHT22;62514;48.112;11.566;2023-09-18T02:26:25;15.50;41.80
356;DHT22;62514;48.112;11.566;2023-09-18T02:28:55;15.40;41.30
356;DHT22;62514;48.112;11.566;2023-09-18T02:31:21;15.40;41.30
356;DHT22;62514;48.112;11.566;2023-09-18T02:33:47;15.40;41.30
356;DHT22;62514;48.112;11.566;2023-09-18T02:36:13;15.50;41.20
356;DHT22;62514;48.112;11.566;2023-09-18T02:38:39;15.50;40.10
356;DHT22;62514;48.112;11.566;2023-09-18T02:41:04;15.60;40.10
356;DHT22;62514;48.112;11.566;2023-09-18T02:43:30;15.50;40.10
356;DHT22;62514;48.112;11.566;2023-09-18T02:45:56;15.40;40.70
356;DHT22;62514;48.112;11.566;2023-09-18T02:48:21;15.40;40.60
356;DHT22;62514;48.112;11.566;2023-09-18T02:50:47;15.40;40.00
356;DHT22;62514;48.112;11.566;2023-09-18T02:53:23;15.40;41.30
356;DHT22;62514;48.112;11.566;2023-09-18T02:55:51;15.40;41.10
356;DHT22;62514;48.112;11.566;2023-09-18T02:58:18;15.40;40.40
356;DHT22;62514;48.112;11.566;2023-09-18T03:00:46;15.30;40.00
356;DHT22;62514;48.112;11.566;2023-09-18T03:03:12;15.30;40.70
356;DHT22;62514;48.112;11.566;2023-09-18T03:05:39;15.30;40.70
356;DHT22;62514;48.112;11.566;2023-09-18T03:08:05;15.30;41.10
356;DHT22;62514;48.112;11.566;2023-09-18T03:10:35;15.30;41.30
356;DHT22;62514;48.112;11.566;2023-09-18T03:13:04;15.30;41.10
356;DHT22;62514;48.112;11.566;2023-09-18T03:15:31;15.30;41.20
356;DHT22;62514;48.112;11.566;2023-09-18T03:17:58;15.30;40.60
356;DHT22;62514;48.112;11.566;2023-09-18T03:20:28;15.30;40.70
356;DHT22;62514;48.112;11.566;2023-09-18T03:22:55;15.20;40.90
356;DHT22;62514;48.112;11.566;2023-09-18T03:25:22;15.30;41.00
356;DHT22;62514;48.112;11.566;2023-09-18T03:27:50;15.30;40.60
356;DHT22;62514;48.112;11.566;2023-09-18T03:30:16;15.30;40.00
356;DHT22;62514;48.112;11.566;2023-09-18T03:32:42;15.30;39.50
356;DHT22;62514;48.112;11.566;2023-09-18T03:35:09;15.10;39.90
356;DHT22;62514;48.112;11.566;2023-09-18T03:37:41;15.10;39.90
356;DHT22;62514;48.112;11.566;2023-09-18T03:40:08;15.00;41.70
356;DHT22;62514;48.112;11.566;2023-09-18T03:42:34;14.90;43.60
356;DHT22;62514;48.112;11.566;2023-09-18T03:45:00;14.80;43.60
356;DHT22;62514;48.112;11.566;2023-09-18T03:47:25;14.80;44.30
356;DHT22;62514;48.112;11.566;2023-09-18T03:49:51;14.80;44.60
356;DHT22;62514;48.112;11.566;2023-09-18T03:52:17;14.80;44.60
356;DHT22;62514;48.112;11.566;2023-09-18T03:54:42;14.80;44.10
356;DHT22;62514;48.112;11.566;2023-09-18T03:57:08;14.90;44.10
356;DHT22;62514;48.112;11.566;2023-09-18T03:59:34;14.80;43.00
356;DHT22;62514;48.112;11.566;2023-09-18T04:01:59;14.80;43.00
356;DHT22;62514;48.112;11.566;2023-09-18T04:04:25;14.80;43.70
356;DHT22;62514;48.112;11.566;2023-09-18T04:06:50;14.70;43.30
356;DHT22;62514;48.112;11.566;2023-09-18T04:09:16;14.70;43.10
356;DHT22;62514;48.112;11.566;2023-09-18T04:11:43;14.60;43.80
356;DHT22;62514;48.112;11.566;2023-09-18T04:14:09;14.70;43.80
356;DHT22;62514;48.112;11.566;2023-09-18T04:16:34;14.50;42.90
356;DHT22;62514;48.112;11.566;2023-09-18T04:19:01;14.60;43.60
356;DHT22;62514;48.112;11.566;2023-09-18T04:21:27;14.60;43.00
356;DHT22;62514;48.112;11.566;2023-09-18T04:23:55;14.60;42.80
356;DHT22;62514;48.112;11.566;2023-09-18T04:26:26;14.60;42.30
356;DHT22;62514;48.112;11.566;2023-09-18T04:28:57;14.50;42.90
356;DHT22;62514;48.112;11.566;2023-09-18T04:31:23;14.50;42.90
356;DHT22;62514;48.112;11.566;2023-09-18T04:33:48;14.50;43.60
356;DHT22;62514;48.112;11.566;2023-09-18T04:36:15;14.50;42.90
356;DHT22;62514;48.112;11.566;2023-09-18T04:38:41;14.50;42.90
356;DHT22;62514;48.112;11.566;2023-09-18T04:41:06;14.50;42.30
356;DHT22;62514;48.112;11.566;2023-09-18T04:43:35;14.50;41.90
356;DHT22;62514;48.112;11.566;2023-09-18T04:46:01;14.40;41.30
356;DHT22;62514;48.112;11.566;2023-09-18T04:48:30;14.20;42.70
356;DHT22;62514;48.112;11.566;2023-09-18T04:50:57;14.20;44.20
356;DHT22;62514;48.112;11.566;2023-09-18T04:53:23;14.20;44.70
356;DHT22;62514;48.112;11.566;2023-09-18T04:55:48;14.10;45.80
356;DHT22;62514;48.112;11.566;2023-09-18T04:58:16;14.10;46.40
356;DHT22;62514;48.112;11.566;2023-09-18T05:00:42;14.20;45.90
356;DHT22;62514;48.112;11.566;2023-09-18T05:03:09;14.10;45.90
356;DHT22;62514;48.112;11.566;2023-09-18T05:05:36;14.10;45.50
356;DHT22;62514;48.112;11.566;2023-09-18T05:08:03;14.10;45.90
356;DHT22;62514;48.112;11.566;2023-09-18T05:10:30;14.00;46.30
356;DHT22;62514;48.112;11.566;2023-09-18T05:12:56;14.00;46.70
356;DHT22;62514;48.112;11.566;2023-09-18T05:15:26;14.10;46.30
356;DHT22;62514;48.112;11.566;2023-09-18T05:17:55;14.10;46.60
356;DHT22;62514;48.112;11.566;2023-09-18T05:20:24;14.20;46.70
356;DHT22;62514;48.112;11.566;2023-09-18T05:22:51;14.20;46.50
356;DHT22;62514;48.112;11.566;2023-09-18T05:25:21;14.20;47.20
356;DHT22;62514;48.112;11.566;2023-09-18T05:27:51;14.30;46.60
356;DHT22;62514;48.112;11.566;2023-09-18T05:30:26;14.40;45.90
356;DHT22;62514;48.112;11.566;2023-09-18T05:33:00;14.40;46.00
356;DHT22;62514;48.112;11.566;2023-09-18T05:35:43;14.40;45.00
356;DHT22;62514;48.112;11.566;2023-09-18T05:38:13;14.40;45.60
356;DHT22;62514;48.112;11.566;2023-09-18T05:40:40;14.50;45.40
356;DHT22;62514;48.112;11.566;2023-09-18T05:43:06;14.60;45.00
356;DHT22;62514;48.112;11.566;2023-09-18T05:45:33;14.80;44.70
356;DHT22;62514;48.112;11.566;2023-09-18T05:47:59;14.90;44.50
356;DHT22;62514;48.112;11.566;2023-09-18T05:50:32;15.00;44.20
356;DHT22;62514;48.112;11.566;2023-09-18T05:52:58;15.10;43.20
356;DHT22;62514;48.112;11.566;2023-09-18T05:55:33;15.30;43.30
356;DHT22;62514;48.112;11.566;2023-09-18T05:57:59;15.40;42.90
356;DHT22;62514;48.112;11.566;2023-09-18T06:00:25;15.40;42.60
356;DHT22;62514;48.112;11.566;2023-09-18T06:02:51;15.50;41.80
356;DHT22;62514;48.112;11.566;2023-09-18T06:05:18;15.70;41.60
356;DHT22;62514;48.112;11.566;2023-09-18T06:07:53;15.70;40.20
356;DHT22;62514;48.112;11.566;2023-09-18T06:10:19;15.80;40.20
356;DHT22;62514;48.112;11.566;2023-09-18T06:12:48;15.90;40.30
356;DHT22;62514;48.112;11.566;2023-09-18T06:15:14;16.10;40.40
356;DHT22;62514;48.112;11.566;2023-09-18T06:17:44;16.10;40.10
356;DHT22;62514;48.112;11.566;2023-09-18T06:20:11;16.20;40.40
356;DHT22;62514;48.112;11.566;2023-09-18T06:22:47;16.30;40.00
356;DHT22;62514;48.112;11.566;2023-09-18T06:25:17;16.40;39.60
356;DHT22;62514;48.112;11.566;2023-09-18T06:27:49;16.50;39.30
356;DHT22;62514;48.112;11.566;2023-09-18T06:30:15;16.60;38.90
356;DHT22;62514;48.112;11.566;2023-09-18T06:32:41;16.80;38.70
356;DHT22;62514;48.112;11.566;2023-09-18T06:35:08;16.90;38.10
356;DHT22;62514;48.112;11.566;2023-09-18T06:37:34;16.90;36.40
356;DHT22;62514;48.112;11.566;2023-09-18T06:39:59;17.00;37.60
356;DHT22;62514;48.112;11.566;2023-09-18T06:42:28;17.00;37.60
356;DHT22;62514;48.112;11.566;2023-09-18T06:44:54;17.10;37.50
356;DHT22;62514;48.112;11.566;2023-09-18T06:47:20;17.30;37.30
356;DHT22;62514;48.112;11.566;2023-09-18T06:49:46;17.50;38.00
356;DHT22;62514;48.112;11.566;2023-09-18T06:52:12;17.60;37.20
356;DHT22;62514;48.112;11.566;2023-09-18T06:54:38;17.80;35.50
356;DHT22;62514;48.112;11.566;2023-09-18T06:57:04;18.00;34.10
356;DHT22;62514;48.112;11.566;2023-09-18T06:59:30;18.10;31.50
356;DHT22;62514;48.112;11.566;2023-09-18T07:01:56;18.20;31.20
356;DHT22;62514;48.112;11.566;2023-09-18T07:04:21;18.30;30.10
356;DHT22;62514;48.112;11.566;2023-09-18T07:06:47;18.30;27.30
356;DHT22;62514;48.112;11.566;2023-09-18T07:09:13;18.50;27.10
356;DHT22;62514;48.112;11.566;2023-09-18T07:11:39;18.60;24.50
356;DHT22;62514;48.112;11.566;2023-09-18T07:14:04;18.80;24.60
356;DHT22;62514;48.112;11.566;2023-09-18T07:16:32;19.10;22.60
356;DHT22;62514;48.112;11.566;2023-09-18T07:18:57;19.20;21.70
356;DHT22;62514;48.112;11.566;2023-09-18T07:21:23;19.50;19.30
356;DHT22;62514;48.112;11.566;2023-09-18T07:23:48;19.70;19.40
356;DHT22;62514;48.112;11.566;2023-09-18T07:26:15;19.90;18.40
356;DHT22;62514;48.112;11.566;2023-09-18T07:28:41;20.20;18.00
356;DHT22;62514;48.112;11.566;2023-09-18T07:31:09;20.50;16.20
356;DHT22;62514;48.112;11.566;2023-09-18T07:33:35;20.70;16.00
356;DHT22;62514;48.112;11.566;2023-09-18T07:36:01;21.00;13.00
356;DHT22;62514;48.112;11.566;2023-09-18T07:38:26;21.00;12.00
356;DHT22;62514;48.112;11.566;2023-09-18T07:40:52;21.10;12.10
356;DHT22;62514;48.112;11.566;2023-09-18T07:43:18;21.20;12.20
356;DHT22;62514;48.112;11.566;2023-09-18T07:45:43;21.10;12.50
356;DHT22;62514;48.112;11.566;2023-09-18T07:48:09;21.10;12.50
356;DHT22;62514;48.112;11.566;2023-09-18T07:50:35;21.10;12.80
356;DHT22;62514;48.112;11.566;2023-09-18T07:53:01;21.30;12.90
356;DHT22;62514;48.112;11.566;2023-09-18T07:55:27;21.20;12.70
356;DHT22;62514;48.112;11.566;2023-09-18T07:57:54;21.40;13.10
356;DHT22;62514;48.112;11.566;2023-09-18T08:00:20;21.40;12.10
356;DHT22;62514;48.112;11.566;2023-09-18T08:02:51;21.50;12.30
356;DHT22;62514;48.112;11.566;2023-09-18T08:05:19;21.60;12.60
356;DHT22;62514;48.112;11.566;2023-09-18T08:07:45;21.70;12.50
356;DHT22;62514;48.112;11.566;2023-09-18T08:10:13;21.90;11.80
356;DHT22;62514;48.112;11.566;2023-09-18T08:12:39;22.10;11.30
356;DHT22;62514;48.112;11.566;2023-09-18T08:15:05;22.30;10.80
356;DHT22;62514;48.112;11.566;2023-09-18T08:17:32;22.40;10.80
356;DHT22;62514;48.112;11.566;2023-09-18T08:19:57;22.40;10.80
356;DHT22;62514;48.112;11.566;2023-09-18T08:22:24;22.50;10.90
356;DHT22;62514;48.112;11.566;2023-09-18T08:24:49;22.50;10.90
356;DHT22;62514;48.112;11.566;2023-09-18T08:27:18;22.50;10.40
356;DHT22;62514;48.112;11.566;2023-09-18T08:29:45;22.40;10.80
356;DHT22;62514;48.112;11.566;2023-09-18T08:32:11;22.30;10.80
356;DHT22;62514;48.112;11.566;2023-09-18T08:34:36;22.30;11.40
356;DHT22;62514;48.112;11.566;2023-09-18T08:37:03;22.20;10.80
356;DHT22;62514;48.112;11.566;2023-09-18T08:39:28;22.20;10.70
356;DHT22;62514;48.112;11.566;2023-09-18T08:41:58;22.20;10.80
356;DHT22;62514;48.112;11.566;2023-09-18T08:44:27;22.20;11.10
356;DHT22;62514;48.112;11.566;2023-09-18T08:46:56;22.30;11.90
356;DHT22;62514;48.112;11.566;2023-09-18T08:49:25;22.40;10.80
356;DHT22;62514;48.112;11.566;2023-09-18T08:51:54;22.20;10.70
356;DHT22;62514;48.112;11.566;2023-09-18T08:54:21;22.20;10.70
356;DHT22;62514;48.112;11.566;2023-09-18T08:56:50;22.30;10.80
356;DHT22;62514;48.112;11.566;2023-09-18T08:59:16;22.40;11.10
356;DHT22;62514;48.112;11.566;2023-09-18T09:01:42;22.20;10.80
356;DHT22;62514;48.112;11.566;2023-09-18T09:04:07;22.10;11.80
356;DHT22;62514;48.112;11.566;2023-09-18T09:06:33;22.00;10.70
356;DHT22;62514;48.112;11.566;2023-09-18T09:08:59;21.90;10.70
356;DHT22;62514;48.112;11.566;2023-09-18T09:11:25;21.70;11.40
356;DHT22;62514;48.112;11.566;2023-09-18T09:14:12;21.70;11.90
356;DHT22;62514;48.112;11.566;2023-09-18T09:16:49;21.70;12.00
356;DHT22;62514;48.112;11.566;2023-09-18T09:19:16;21.60;12.60
356;DHT22;62514;48.112;11.566;2023-09-18T09:21:43;21.60;12.40
356;DHT22;62514;48.112;11.566;2023-09-18T09:24:10;21.60;12.60
356;DHT22;62514;48.112;11.566;2023-09-18T09:26:40;21.60;12.50
356;DHT22;62514;48.112;11.566;2023-09-18T09:29:19;21.80;12.90
356;DHT22;62514;48.112;11.566;2023-09-18T09:31:46;21.90;11.90
356;DHT22;62514;48.112;11.566;2023-09-18T09:34:16;21.90;11.70
356;DHT22;62514;48.112;11.566;2023-09-18T09:36:56;22.00;11.10
356;DHT22;62514;48.112;11.566;2023-09-18T09:39:22;22.00;11.50
356;DHT22;62514;48.112;11.566;2023-09-18T09:41:53;22.20;11.10
356;DHT22;62514;48.112;11.566;2023-09-18T09:44:19;22.40;10.90
356;DHT22;62514;48.112;11.566;2023-09-18T09:46:49;22.70;10.10
356;DHT22;62514;48.112;11.566;2023-09-18T09:49:17;22.80;9.50
356;DHT22;62514;48.112;11.566;2023-09-18T09:51:45;22.80;8.70
356;DHT22;62514;48.112;11.566;2023-09-18T09:54:12;22.80;9.30
356;DHT22;62514;48.112;11.566;2023-09-18T09:56:46;22.90;9.60
356;DHT22;62514;48.112;11.566;2023-09-18T09:59:14;22.80;9.60
356;DHT22;62514;48.112;11.566;2023-09-18T10:01:41;22.80;9.30
356;DHT22;62514;48.112;11.566;2023-09-18T10:04:13;22.80;8.80
356;DHT22;62514;48.112;11.566;2023-09-18T10:06:43;22.80;8.90
356;DHT22;62514;48.112;11.566;2023-09-18T10:09:12;22.70;10.00
356;DHT22;62514;48.112;11.566;2023-09-18T10:11:42;22.70;10.10
356;DHT22;62514;48.112;11.566;2023-09-18T10:14:16;22.80;9.90
356;DHT22;62514;48.112;11.566;2023-09-18T10:16:50;22.70;8.30
356;DHT22;62514;48.112;11.566;2023-09-18T10:19:30;22.70;9.30
356;DHT22;62514;48.112;11.566;2023-09-18T10:22:20;22.90;9.40
356;DHT22;62514;48.112;11.566;2023-09-18T10:24:50;23.00;9.40
356;DHT22;62514;48.112;11.566;2023-09-18T10:27:20;23.00;9.60
356;DHT22;62514;48.112;11.566;2023-09-18T10:29:49;23.00;8.60
356;DHT22;62514;48.112;11.566;2023-09-18T10:32:17;23.00;8.70
356;DHT22;62514;48.112;11.566;2023-09-18T10:34:45;23.10;7.90
356;DHT22;62514;48.112;11.566;2023-09-18T10:37:14;23.00;7.70
356;DHT22;62514;48.112;11.566;2023-09-18T10:39:41;23.00;8.10
356;DHT22;62514;48.112;11.566;2023-09-18T10:42:11;23.10;8.30
356;DHT22;62514;48.112;11.566;2023-09-18T10:44:37;23.20;7.50
356;DHT22;62514;48.112;11.566;2023-09-18T10:47:08;23.10;7.20
356;DHT22;62514;48.112;11.566;2023-09-18T10:49:35;23.00;7.70
356;DHT22;62514;48.112;11.566;2023-09-18T10:52:01;23.00;8.00
356;DHT22;62514;48.112;11.566;2023-09-18T10:54:30;23.10;8.20
356;DHT22;62514;48.112;11.566;2023-09-18T10:56:57;23.10;7.50
356;DHT22;62514;48.112;11.566;2023-09-18T10:59:23;23.20;7.60
356;DHT22;62514;48.112;11.566;2023-09-18T11:01:49;23.10;7.40
356;DHT22;62514;48.112;11.566;2023-09-18T11:04:18;23.00;7.40
356;DHT22;62514;48.112;11.566;2023-09-18T11:09:27;23.30;8.00
356;DHT22;62514;48.112;11.566;2023-09-18T11:17:32;23.40;7.80
356;DHT22;62514;48.112;11.566;2023-09-18T11:20:18;23.40;7.10
356;DHT22;62514;48.112;11.566;2023-09-18T11:22:49;23.40;7.00
356;DHT22;62514;48.112;11.566;2023-09-18T11:25:37;23.50;7.80
356;DHT22;62514;48.112;11.566;2023-09-18T11:28:04;23.40;6.20
356;DHT22;62514;48.112;11.566;2023-09-18T11:30:34;23.30;6.20
356;DHT22;62514;48.112;11.566;2023-09-18T11:33:05;23.10;6.20
356;DHT22;62514;48.112;11.566;2023-09-18T11:35:35;22.90;6.20
356;DHT22;62514;48.112;11.566;2023-09-18T11:38:09;22.70;7.00
356;DHT22;62514;48.112;11.566;2023-09-18T11:40:36;22.50;7.60
356;DHT22;62514;48.112;11.566;2023-09-18T11:43:25;22.40;8.20
356;DHT22;62514;48.112;11.566;2023-09-18T11:45:59;22.30;8.10
356;DHT22;62514;48.112;11.566;2023-09-18T11:48:26;22.20;8.40
356;DHT22;62514;48.112;11.566;2023-09-18T11:50:59;22.20;8.60
356;DHT22;62514;48.112;11.566;2023-09-18T11:53:27;22.00;9.10
356;DHT22;62514;48.112;11.566;2023-09-18T11:55:53;21.90;9.70
356;DHT22;62514;48.112;11.566;2023-09-18T11:58:19;21.60;10.60
356;DHT22;62514;48.112;11.566;2023-09-18T12:00:50;21.40;10.50
356;DHT22;62514;48.112;11.566;2023-09-18T12:03:21;21.20;11.60
356;DHT22;62514;48.112;11.566;2023-09-18T12:05:58;20.90;13.10
356;DHT22;62514;48.112;11.566;2023-09-18T12:08:25;20.90;14.20
356;DHT22;62514;48.112;11.566;2023-09-18T12:10:56;20.90;14.30
356;DHT22;62514;48.112;11.566;2023-09-18T12:13:25;20.60;14.80
356;DHT22;62514;48.112;11.566;2023-09-18T12:16:02;20.50;15.00
356;DHT22;62514;48.112;11.566;2023-09-18T12:18:31;20.50;15.70
356;DHT22;62514;48.112;11.566;2023-09-18T12:20:58;20.40;16.60
356;DHT22;62514;48.112;11.566;2023-09-18T12:23:24;20.20;17.00
356;DHT22;62514;48.112;11.566;2023-09-18T12:25:57;19.90;18.00
356;DHT22;62514;48.112;11.566;2023-09-18T12:28:25;19.90;19.40
356;DHT22;62514;48.112;11.566;2023-09-18T12:30:54;19.70;19.40
356;DHT22;62514;48.112;11.566;2023-09-18T12:33:25;19.60;20.80
356;DHT22;62514;48.112;11.566;2023-09-18T12:35:50;19.50;21.90
356;DHT22;62514;48.112;11.566;2023-09-18T12:38:19;19.30;22.60
356;DHT22;62514;48.112;11.566;2023-09-18T12:40:50;19.30;23.20
356;DHT22;62514;48.112;11.566;2023-09-18T12:43:16;19.20;23.90
356;DHT22;62514;48.112;11.566;2023-09-18T12:45:43;19.10;24.70
356;DHT22;62514;48.112;11.566;2023-09-18T12:48:09;19.10;25.10
356;DHT22;62514;48.112;11.566;2023-09-18T12:50:36;19.10;25.90
356;DHT22;62514;48.112;11.566;2023-09-18T12:53:09;19.10;26.10
356;DHT22;62514;48.112;11.566;2023-09-18T12:55:35;19.10;26.70
356;DHT22;62514;48.112;11.566;2023-09-18T12:58:01;18.90;26.70
356;DHT22;62514;48.112;11.566;2023-09-18T13:00:31;18.90;27.40
356;DHT22;62514;48.112;11.566;2023-09-18T13:02:57;18.80;27.60
356;DHT22;62514;48.112;11.566;2023-09-18T13:05:23;18.80;28.30
356;DHT22;62514;48.112;11.566;2023-09-18T13:07:55;18.70;28.10
356;DHT22;62514;48.112;11.566;2023-09-18T13:10:21;18.60;29.30
356;DHT22;62514;48.112;11.566;2023-09-18T13:12:51;18.40;30.10
356;DHT22;62514;48.112;11.566;2023-09-18T13:15:44;18.40;31.40
356;DHT22;62514;48.112;11.566;2023-09-18T13:18:14;18.00;33.80
356;DHT22;62514;48.112;11.566;2023-09-18T13:20:40;17.90;36.90
356;DHT22;62514;48.112;11.566;2023-09-18T13:23:06;17.80;37.90
356;DHT22;62514;48.112;11.566;2023-09-18T13:25:37;17.70;38.80
356;DHT22;62514;48.112;11.566;2023-09-18T13:28:05;17.70;39.80
356;DHT22;62514;48.112;11.566;2023-09-18T13:30:33;17.70;41.10
356;DHT22;62514;48.112;11.566;2023-09-18T13:33:07;17.60;41.10
356;DHT22;62514;48.112;11.566;2023-09-18T13:35:35;17.50;42.50
356;DHT22;62514;48.112;11.566;2023-09-18T13:38:01;17.50;42.30
356;DHT22;62514;48.112;11.566;2023-09-18T13:40:29;17.40;43.00
356;DHT22;62514;48.112;11.566;2023-09-18T13:42:55;17.50;42.70
356;DHT22;62514;48.112;11.566;2023-09-18T13:45:20;17.50;42.90
356;DHT22;62514;48.112;11.566;2023-09-18T13:47:46;17.60;41.10
356;DHT22;62514;48.112;11.566;2023-09-18T13:50:14;17.70;43.30
356;DHT22;62514;48.112;11.566;2023-09-18T13:52:40;17.70;42.90
356;DHT22;62514;48.112;11.566;2023-09-18T13:55:05;17.80;41.90
356;DHT22;62514;48.112;11.566;2023-09-18T13:57:32;17.90;41.30
356;DHT22;62514;48.112;11.566;2023-09-18T14:00:00;17.90;41.30
356;DHT22;62514;48.112;11.566;2023-09-18T14:02:26;18.00;41.30
356;DHT22;62514;48.112;11.566;2023-09-18T14:04:56;18.00;40.40
356;DHT22;62514;48.112;11.566;2023-09-18T14:07:21;18.00;41.30
356;DHT22;62514;48.112;11.566;2023-09-18T14:09:48;18.10;40.80
356;DHT22;62514;48.112;11.566;2023-09-18T14:12:14;18.30;41.50
356;DHT22;62514;48.112;11.566;2023-09-18T14:14:41;18.50;40.50
356;DHT22;62514;48.112;11.566;2023-09-18T14:17:07;18.60;41.40
356;DHT22;62514;48.112;11.566;2023-09-18T14:19:34;18.70;38.70
356;DHT22;62514;48.112;11.566;2023-09-18T14:22:00;18.80;35.90
356;DHT22;62514;48.112;11.566;2023-09-18T14:24:29;18.90;36.60
356;DHT22;62514;48.112;11.566;2023-09-18T14:26:55;19.20;38.00
356;DHT22;62514;48.112;11.566;2023-09-18T14:29:21;19.40;37.00
356;DHT22;62514;48.112;11.566;2023-09-18T14:31:47;19.70;35.80
356;DHT22;62514;48.112;11.566;2023-09-18T14:34:13;19.80;32.10
356;DHT22;62514;48.112;11.566;2023-09-18T14:36:40;19.90;32.10
356;DHT22;62514;48.112;11.566;2023-09-18T14:39:06;19.90;30.70
356;DHT22;62514;48.112;11.566;2023-09-18T14:41:38;19.90;31.40
356;DHT22;62514;48.112;11.566;2023-09-18T14:44:05;19.90;32.90
356;DHT22;62514;48.112;11.566;2023-09-18T14:46:31;19.80;32.10
356;DHT22;62514;48.112;11.566;2023-09-18T14:49:00;19.80;30.70
356;DHT22;62514;48.112;11.566;2023-09-18T14:51:30;19.70;32.60
356;DHT22;62514;48.112;11.566;2023-09-18T14:53:57;19.70;32.60
356;DHT22;62514;48.112;11.566;2023-09-18T14:56:23;19.70;33.60
356;DHT22;62514;48.112;11.566;2023-09-18T14:58:49;19.70;31.70
356;DHT22;62514;48.112;11.566;2023-09-18T15:01:21;19.70;32.50
356;DHT22;62514;48.112;11.566;2023-09-18T15:03:47;19.60;32.30
356;DHT22;62514;48.112;11.566;2023-09-18T15:06:14;19.40;31.90
356;DHT22;62514;48.112;11.566;2023-09-18T15:08:40;19.40;33.90
356;DHT22;62514;48.112;11.566;2023-09-18T15:11:06;19.40;33.30
356;DHT22;62514;48.112;11.566;2023-09-18T15:13:32;19.40;31.60
356;DHT22;62514;48.112;11.566;2023-09-18T15:16:00;19.20;32.00
356;DHT22;62514;48.112;11.566;2023-09-18T15:18:26;19.20;33.10
356;DHT22;62514;48.112;11.566;2023-09-18T15:20:52;19.20;33.80
356;DHT22;62514;48.112;11.566;2023-09-18T15:23:22;19.10;33.30
356;DHT22;62514;48.112;11.566;2023-09-18T15:25:49;19.10;33.30
356;DHT22;62514;48.112;11.566;2023-09-18T15:28:16;19.00;34.50
356;DHT22;62514;48.112;11.566;2023-09-18T15:30:45;19.00;33.90
356;DHT22;62514;48.112;11.566;2023-09-18T15:33:11;18.90;34.30
356;DHT22;62514;48.112;11.566;2023-09-18T15:35:38;18.90;33.50
356;DHT22;62514;48.112;11.566;2023-09-18T15:38:04;18.80;34.00
356;DHT22;62514;48.112;11.566;2023-09-18T15:40:32;18.70;34.20
356;DHT22;62514;48.112;11.566;2023-09-18T15:42:58;18.70;34.30
356;DHT22;62514;48.112;11.566;2023-09-18T15:45:24;18.60;34.90
356;DHT22;62514;48.112;11.566;2023-09-18T15:47:49;18.50;35.70
356;DHT22;62514;48.112;11.566;2023-09-18T15:50:16;18.60;37.40
356;DHT22;62514;48.112;11.566;2023-09-18T15:52:42;18.50;38.20
356;DHT22;62514;48.112;11.566;2023-09-18T15:55:08;18.50;36.80
356;DHT22;62514;48.112;11.566;2023-09-18T15:57:36;18.50;36.50
356;DHT22;62514;48.112;11.566;2023-09-18T16:00:05;18.40;36.30
356;DHT22;62514;48.112;11.566;2023-09-18T16:02:35;18.40;37.00
356;DHT22;62514;48.112;11.566;2023-09-18T16:05:02;18.40;36.70